Time;durP1;ratioP1;P1;durP2;ratioP2;P2;SDS_P1;SDS_P2;PMS_P1;PMS_P2;Temp;Humidity;BMP_temperature;BMP_pressure;BME280_temperature;BME280_humidity;BME280_pressure;Samples;Min_cycle;Max_cycle;Signal;HPM_P1;HPM_P2
2023/01/07 00:01:23;;;;;;;0.45;0.45;;;8.40;99.90;;;;;;5075761;28;20197;-68
2023/01/07 00:03:50;;;;;;;1.70;1.70;;;8.40;99.90;;;;;;5075741;28;20662;-67
2023/01/07 00:06:24;;;;;;;0.73;0.73;;;8.40;99.90;;;;;;5075766;28;20177;-68
2023/01/07 00:08:52;;;;;;;0.43;0.40;;;8.40;99.90;;;;;;5075874;28;20169;-68
2023/01/07 00:11:23;;;;;;;0.40;0.40;;;8.30;99.90;;;;;;5075848;28;20174;-68
2023/01/07 00:13:50;;;;;;;0.80;0.60;;;8.30;99.90;;;;;;5075693;28;20246;-68
2023/01/07 00:16:18;;;;;;;0.30;0.30;;;8.40;99.90;;;;;;5075466;28;20178;-68
2023/01/07 00:18:45;;;;;;;1.10;1.10;;;8.40;99.90;;;;;;5075717;28;20177;-67
2023/01/07 00:21:13;;;;;;;0.40;0.40;;;8.40;99.90;;;;;;5075365;28;20197;-68
2023/01/07 00:23:40;;;;;;;0.45;0.45;;;8.40;99.90;;;;;;5075342;28;20189;-69
2023/01/07 00:26:13;;;;;;;1.27;1.27;;;8.50;99.90;;;;;;5075253;28;20538;-68
2023/01/07 00:28:40;;;;;;;3.95;3.38;;;8.40;99.90;;;;;;5075456;28;20169;-67
2023/01/07 00:31:12;;;;;;;0.40;0.40;;;8.40;99.90;;;;;;5075456;28;20205;-67
2023/01/07 00:33:47;;;;;;;0.40;0.40;;;8.50;99.90;;;;;;5074531;28;20189;-67
2023/01/07 00:36:13;;;;;;;1.17;1.17;;;8.50;99.90;;;;;;5074799;28;20580;-68
2023/01/07 00:38:38;;;;;;;1.93;1.57;;;8.40;99.90;;;;;;5075309;28;20181;-68
2023/01/07 00:41:05;;;;;;;5.80;3.53;;;8.30;99.90;;;;;;5075088;28;20291;-68
2023/01/07 00:43:30;;;;;;;3.08;2.50;;;8.30;99.90;;;;;;5075005;28;20434;-68
2023/01/07 00:45:56;;;;;;;1.57;1.07;;;8.30;99.90;;;;;;5074855;28;20174;-68
2023/01/07 00:48:22;;;;;;;3.33;2.13;;;8.30;99.90;;;;;;5075076;28;20407;-68
2023/01/07 00:50:50;;;;;;;1.58;1.48;;;8.30;99.90;;;;;;5074850;28;20522;-68
2023/01/07 00:53:16;;;;;;;2.15;0.80;;;8.40;99.90;;;;;;5074782;28;20204;-68
2023/01/07 00:55:42;;;;;;;0.50;0.50;;;8.40;99.90;;;;;;5074651;28;20177;-68
2023/01/07 00:58:23;;;;;;;7.13;3.00;;;8.30;99.90;;;;;;5074815;28;20180;-68
2023/01/07 01:00:48;;;;;;;3.95;3.55;;;8.40;99.90;;;;;;5073401;28;20658;-68
2023/01/07 01:03:15;;;;;;;6.23;2.20;;;8.40;99.90;;;;;;5074777;28;20204;-68
2023/01/07 01:05:40;;;;;;;1.20;1.15;;;8.40;99.90;;;;;;5074434;28;20404;-68
2023/01/07 01:08:08;;;;;;;1.33;1.27;;;8.40;99.90;;;;;;5074526;28;20166;-68
2023/01/07 01:10:34;;;;;;;1.65;1.55;;;8.40;99.90;;;;;;5074688;28;20174;-68
2023/01/07 01:13:00;;;;;;;5.80;1.47;;;8.40;99.90;;;;;;5074335;28;20196;-67
2023/01/07 01:15:26;;;;;;;0.43;0.43;;;8.40;99.90;;;;;;5074210;28;20404;-68
2023/01/07 01:17:52;;;;;;;4.13;2.47;;;8.30;99.90;;;;;;5074312;28;20737;-67
2023/01/07 01:20:18;;;;;;;2.33;1.30;;;8.30;99.90;;;;;;5074266;28;20491;-68
2023/01/07 01:22:44;;;;;;;0.60;0.60;;;8.40;99.90;;;;;;5074727;28;20296;-68
2023/01/07 01:25:10;;;;;;;0.60;0.60;;;8.40;99.90;;;;;;5074059;28;20311;-68
2023/01/07 01:27:37;;;;;;;0.50;0.50;;;8.30;99.90;;;;;;5074295;28;20173;-68
2023/01/07 01:30:04;;;;;;;7.15;4.93;;;8.30;99.90;;;;;;5074003;28;20252;-67
2023/01/07 01:32:29;;;;;;;1.30;1.20;;;8.40;99.90;;;;;;5073935;28;20190;-67
2023/01/07 01:34:55;;;;;;;1.50;1.00;;;8.40;99.90;;;;;;5074125;28;20626;-68
2023/01/07 01:37:21;;;;;;;3.30;3.10;;;8.40;99.90;;;;;;5073957;28;20227;-67
2023/01/07 01:39:47;;;;;;;4.17;3.37;;;8.40;99.90;;;;;;5074152;28;20245;-68
2023/01/07 01:42:14;;;;;;;4.43;4.13;;;8.40;99.90;;;;;;5073939;28;20208;-67
2023/01/07 01:45:00;;;;;;;2.92;2.72;;;8.40;99.90;;;;;;5073830;28;20196;-68
2023/01/07 01:47:41;;;;;;;0.30;0.30;;;8.40;99.90;;;;;;5073829;28;20150;-67
2023/01/07 01:50:06;;;;;;;0.75;0.75;;;8.40;99.90;;;;;;5074126;28;20240;-68
2023/01/07 01:52:51;;;;;;;5.20;1.43;;;8.40;99.90;;;;;;5073792;28;20272;-68
2023/01/07 01:55:21;;;;;;;0.82;0.82;;;8.40;99.90;;;;;;5073547;28;20166;-68
2023/01/07 01:57:50;;;;;;;1.30;1.30;;;8.40;99.90;;;;;;5074248;28;20173;-68
2023/01/07 02:00:15;;;;;;;1.95;1.23;;;8.40;99.90;;;;;;5073996;28;20170;-67
2023/01/07 02:02:49;;;;;;;0.40;0.40;;;8.50;99.90;;;;;;5073493;28;20678;-68
2023/01/07 02:05:15;;;;;;;1.52;0.88;;;8.50;99.90;;;;;;5073463;28;20161;-68
2023/01/07 02:07:41;;;;;;;0.37;0.37;;;8.30;99.90;;;;;;5073714;28;20169;-68
2023/01/07 02:10:14;;;;;;;0.40;0.40;;;8.20;99.90;;;;;;5073553;28;20497;-67
2023/01/07 02:13:10;;;;;;;3.78;0.80;;;8.30;99.90;;;;;;5073811;28;20197;-68
2023/01/07 02:15:55;;;;;;;0.77;0.70;;;8.30;99.90;;;;;;5073350;28;20169;-68
2023/01/07 02:18:44;;;;;;;1.95;1.85;;;8.20;99.90;;;;;;5073474;28;20565;-68
2023/01/07 02:21:34;;;;;;;0.40;0.40;;;8.30;99.90;;;;;;5073406;28;20193;-68
2023/01/07 02:24:30;;;;;;;0.52;0.50;;;8.20;99.90;;;;;;5072150;28;20178;-69
2023/01/07 02:27:24;;;;;;;0.52;0.52;;;8.30;99.90;;;;;;5073438;28;20165;-67
2023/01/07 02:30:13;;;;;;;1.40;0.60;;;8.30;99.90;;;;;;5073726;28;20169;-68
2023/01/07 02:33:00;;;;;;;0.30;0.30;;;8.30;99.90;;;;;;5073325;28;20190;-68
2023/01/07 02:35:47;;;;;;;0.75;0.50;;;8.30;99.90;;;;;;5073236;28;20181;-67
2023/01/07 02:38:39;;;;;;;0.30;0.30;;;8.30;99.90;;;;;;5073311;28;20227;-68
2023/01/07 02:41:18;;;;;;;1.73;0.85;;;8.30;99.90;;;;;;5073320;28;20275;-68
2023/01/07 02:44:10;;;;;;;0.50;0.40;;;8.20;99.90;;;;;;5073212;28;20190;-68
2023/01/07 02:46:50;;;;;;;1.40;1.30;;;8.30;99.90;;;;;;5073523;28;20174;-67
2023/01/07 02:49:17;;;;;;;3.00;1.08;;;8.30;99.90;;;;;;5073297;28;20165;-68
2023/01/07 02:51:43;;;;;;;0.80;0.80;;;8.30;99.90;;;;;;5073079;28;20181;-67
2023/01/07 02:54:14;;;;;;;0.43;0.43;;;8.30;99.90;;;;;;5073159;28;20252;-68
2023/01/07 02:57:00;;;;;;;0.60;0.60;;;8.30;99.90;;;;;;5073211;28;20198;-68
2023/01/07 02:59:38;;;;;;;0.40;0.40;;;8.20;99.90;;;;;;5076628;28;20200;-68
2023/01/07 03:02:17;;;;;;;0.50;0.50;;;8.20;99.90;;;;;;5076800;28;20692;-68
2023/01/07 03:05:10;;;;;;;0.38;0.38;;;8.20;99.90;;;;;;5076951;28;20173;-68
2023/01/07 03:07:48;;;;;;;0.50;0.50;;;8.20;99.90;;;;;;5077012;28;20174;-68
2023/01/07 03:10:46;;;;;;;0.95;0.52;;;8.20;99.90;;;;;;5076937;28;20168;-69
2023/01/07 03:13:26;;;;;;;0.60;0.60;;;8.20;99.90;;;;;;5076677;28;20674;-68
2023/01/07 03:16:04;;;;;;;0.30;0.30;;;8.10;99.90;;;;;;5076686;28;20176;-68
2023/01/07 03:18:34;;;;;;;0.60;0.60;;;8.10;99.90;;;;;;5076770;28;20644;-68
2023/01/07 03:21:04;;;;;;;0.35;0.35;;;8.00;99.90;;;;;;5076491;28;20250;-68
2023/01/07 03:23:32;;;;;;;0.68;0.68;;;8.00;99.90;;;;;;5076481;28;20185;-68
2023/01/07 03:26:02;;;;;;;1.90;1.42;;;7.90;99.90;;;;;;5076556;28;20176;-68
2023/01/07 03:28:32;;;;;;;1.45;0.73;;;7.90;99.90;;;;;;5076682;28;20170;-68
2023/01/07 03:30:59;;;;;;;0.65;0.65;;;7.90;99.90;;;;;;5076391;28;20169;-68
2023/01/07 03:33:49;;;;;;;1.48;1.38;;;7.90;99.90;;;;;;5076262;28;20238;-68
2023/01/07 03:36:18;;;;;;;0.75;0.75;;;7.80;99.90;;;;;;5076151;28;20172;-68
2023/01/07 03:38:45;;;;;;;0.70;0.70;;;7.90;99.90;;;;;;5076496;28;20229;-68
2023/01/07 03:42:38;;;;;;;0.88;0.85;;;7.90;99.90;;;;;;5076127;28;20191;-68
2023/01/07 03:43:56;;;;;;;1.50;1.48;;;7.90;99.90;;;;;;5076010;28;20268;-68
2023/01/07 03:46:22;;;;;;;1.17;0.93;;;7.90;99.90;;;;;;5076046;28;20255;-68
2023/01/07 03:48:47;;;;;;;0.67;0.67;;;7.90;99.90;;;;;;5076210;28;20173;-67
2023/01/07 03:51:13;;;;;;;2.30;2.20;;;7.80;99.90;;;;;;5075975;28;20298;-67
2023/01/07 03:53:39;;;;;;;0.40;0.40;;;7.80;99.90;;;;;;5075957;28;20234;-67
2023/01/07 03:56:04;;;;;;;0.87;0.87;;;7.70;99.90;;;;;;5075763;28;20169;-68
2023/01/07 03:58:30;;;;;;;0.53;0.53;;;7.70;99.90;;;;;;5076029;28;20267;-68
2023/01/07 04:00:55;;;;;;;1.53;1.53;;;7.60;99.90;;;;;;5075860;28;20315;-68
2023/01/07 04:03:21;;;;;;;1.17;1.07;;;7.70;99.90;;;;;;5075882;28;20689;-67
2023/01/07 04:05:47;;;;;;;0.40;0.40;;;7.70;99.90;;;;;;5075934;28;20166;-68
2023/01/07 04:08:12;;;;;;;0.83;0.80;;;7.70;99.90;;;;;;5075696;28;20193;-68
2023/01/07 04:10:38;;;;;;;0.60;0.60;;;7.70;99.90;;;;;;5076893;28;20170;-68
2023/01/07 04:13:03;;;;;;;0.30;0.30;;;7.60;99.90;;;;;;5075606;28;20196;-67
2023/01/07 04:15:29;;;;;;;0.77;0.77;;;7.60;99.90;;;;;;5075548;28;20677;-67
2023/01/07 04:17:54;;;;;;;0.83;0.83;;;7.50;99.90;;;;;;5075482;28;20172;-68
2023/01/07 04:20:20;;;;;;;2.53;0.73;;;7.50;99.90;;;;;;5075786;28;20576;-68
2023/01/07 04:22:46;;;;;;;2.20;1.23;;;7.50;99.90;;;;;;5075432;28;20703;-67
2023/01/07 04:25:11;;;;;;;0.97;0.90;;;7.60;99.90;;;;;;5075501;28;20600;-67
2023/01/07 04:27:37;;;;;;;1.37;1.27;;;7.60;99.90;;;;;;5075361;28;20170;-68
2023/01/07 04:30:03;;;;;;;0.50;0.50;;;7.70;99.90;;;;;;5075403;28;20237;-68
2023/01/07 04:32:29;;;;;;;0.50;0.50;;;7.80;99.90;;;;;;5075281;28;20197;-68
2023/01/07 04:34:54;;;;;;;0.60;0.60;;;7.70;99.90;;;;;;5075086;28;20187;-68
2023/01/07 04:37:20;;;;;;;1.50;1.40;;;7.70;99.90;;;;;;5075064;28;20657;-67
2023/01/07 04:39:46;;;;;;;2.77;1.70;;;7.70;99.90;;;;;;5075267;28;20183;-68
2023/01/07 04:42:11;;;;;;;1.03;0.83;;;7.70;99.90;;;;;;5075137;28;20235;-68
2023/01/07 04:44:37;;;;;;;1.03;1.03;;;7.60;99.90;;;;;;5074868;28;20173;-68
2023/01/07 04:47:03;;;;;;;1.70;0.67;;;7.60;99.90;;;;;;5075312;28;20582;-68
2023/01/07 04:49:28;;;;;;;0.70;0.70;;;7.50;99.90;;;;;;5074776;28;20193;-68
2023/01/07 04:51:54;;;;;;;1.13;1.13;;;7.50;99.90;;;;;;5075081;28;20646;-68
2023/01/07 04:54:19;;;;;;;1.43;1.27;;;7.50;99.90;;;;;;5074689;28;20176;-67
2023/01/07 04:56:45;;;;;;;0.77;0.77;;;7.50;99.90;;;;;;5074784;28;20182;-68
2023/01/07 04:59:10;;;;;;;2.00;1.07;;;7.50;99.90;;;;;;5074796;28;20534;-68
2023/01/07 05:01:36;;;;;;;1.10;1.07;;;7.60;99.90;;;;;;5074848;28;20197;-67
2023/01/07 05:04:02;;;;;;;0.40;0.40;;;7.60;99.90;;;;;;5074506;28;20164;-68
2023/01/07 05:06:27;;;;;;;0.60;0.50;;;7.60;99.90;;;;;;5074704;28;20624;-68
2023/01/07 05:08:53;;;;;;;4.23;2.70;;;7.60;99.90;;;;;;5074736;28;20803;-68
2023/01/07 05:11:20;;;;;;;0.87;0.80;;;7.60;99.90;;;;;;5074914;28;20732;-68
2023/01/07 05:13:48;;;;;;;1.05;0.90;;;7.60;99.90;;;;;;5074376;28;20219;-67
2023/01/07 05:16:14;;;;;;;0.50;0.50;;;7.60;99.90;;;;;;5074354;28;20173;-68
2023/01/07 05:18:39;;;;;;;0.80;0.80;;;7.60;99.90;;;;;;5074498;28;20179;-68
2023/01/07 05:21:05;;;;;;;3.07;1.67;;;7.60;99.90;;;;;;5073750;28;20193;-67
2023/01/07 05:23:30;;;;;;;0.67;0.67;;;7.60;99.90;;;;;;5074382;28;20588;-67
2023/01/07 05:25:56;;;;;;;0.60;0.60;;;7.70;99.90;;;;;;5074084;28;20188;-68
2023/01/07 05:28:22;;;;;;;0.80;0.80;;;7.70;99.90;;;;;;5074272;28;20180;-68
2023/01/07 05:30:47;;;;;;;2.27;2.17;;;7.70;99.90;;;;;;5074333;28;20192;-68
2023/01/07 05:33:13;;;;;;;1.27;0.60;;;7.70;99.90;;;;;;5074154;28;20196;-68
2023/01/07 05:35:38;;;;;;;0.30;0.30;;;7.70;99.90;;;;;;5073889;28;20180;-68
2023/01/07 05:38:04;;;;;;;3.03;2.10;;;7.60;99.90;;;;;;5073866;28;20188;-67
2023/01/07 05:40:30;;;;;;;1.63;1.23;;;7.50;99.90;;;;;;5073864;28;20168;-68
2023/01/07 05:42:55;;;;;;;0.57;0.57;;;7.40;99.90;;;;;;5073864;28;20185;-68
2023/01/07 05:45:21;;;;;;;1.37;1.37;;;7.40;99.90;;;;;;5073789;28;20172;-69
2023/01/07 05:47:47;;;;;;;2.83;1.37;;;7.40;99.90;;;;;;5073250;28;20168;-69
2023/01/07 05:50:13;;;;;;;2.13;1.55;;;7.40;99.90;;;;;;5072493;28;20298;-69
2023/01/07 05:52:39;;;;;;;0.93;0.93;;;7.40;99.90;;;;;;5072676;28;20752;-69
2023/01/07 05:55:07;;;;;;;1.57;1.47;;;7.40;99.90;;;;;;5073786;28;20437;-68
2023/01/07 05:57:32;;;;;;;9.32;2.35;;;7.50;99.90;;;;;;5072795;28;20184;-69
2023/01/07 05:59:58;;;;;;;3.20;2.20;;;7.50;99.90;;;;;;5074045;28;20176;-69
2023/01/07 06:02:24;;;;;;;0.30;0.30;;;7.40;99.90;;;;;;5073917;28;20205;-69
2023/01/07 06:04:49;;;;;;;2.00;1.10;;;7.50;99.90;;;;;;5073866;28;20198;-69
2023/01/07 06:07:15;;;;;;;0.57;0.57;;;7.60;99.90;;;;;;5073868;28;20259;-69
2023/01/07 06:09:40;;;;;;;1.13;1.13;;;7.50;99.90;;;;;;5073887;28;20201;-69
2023/01/07 06:12:06;;;;;;;0.60;0.60;;;7.50;99.90;;;;;;5073764;28;20224;-69
2023/01/07 06:14:32;;;;;;;0.83;0.83;;;7.50;99.90;;;;;;5072389;28;20172;-69
2023/01/07 06:16:58;;;;;;;2.00;1.07;;;7.50;99.90;;;;;;5074011;28;20630;-69
2023/01/07 06:19:25;;;;;;;1.83;1.38;;;7.50;99.90;;;;;;5073489;28;20303;-69
2023/01/07 06:21:50;;;;;;;0.30;0.30;;;7.40;99.90;;;;;;5073960;28;20198;-69
2023/01/07 06:24:16;;;;;;;2.03;1.30;;;7.40;99.90;;;;;;5073522;28;20630;-69
2023/01/07 06:26:42;;;;;;;2.00;2.00;;;7.50;99.90;;;;;;5073681;28;20179;-68
2023/01/07 06:29:08;;;;;;;3.03;2.90;;;7.50;99.90;;;;;;5073756;28;20179;-68
2023/01/07 06:31:34;;;;;;;0.32;0.32;;;7.50;99.90;;;;;;5073791;28;20172;-68
2023/01/07 06:34:00;;;;;;;1.07;1.07;;;7.60;99.90;;;;;;5077664;28;20225;-69
2023/01/07 06:36:25;;;;;;;1.97;1.83;;;7.60;99.90;;;;;;5077900;28;20234;-69
2023/01/07 06:38:51;;;;;;;1.70;1.70;;;7.50;99.90;;;;;;5077754;28;20182;-68
2023/01/07 06:41:16;;;;;;;1.93;1.83;;;7.60;99.90;;;;;;5077635;28;20206;-69
2023/01/07 06:43:42;;;;;;;0.70;0.70;;;7.60;99.90;;;;;;5077705;28;20187;-69
2023/01/07 06:46:08;;;;;;;0.40;0.40;;;7.60;99.90;;;;;;5077706;28;20186;-69
2023/01/07 06:48:36;;;;;;;0.40;0.40;;;7.60;99.90;;;;;;5077891;28;20251;-69
2023/01/07 06:51:02;;;;;;;0.95;0.95;;;7.60;99.90;;;;;;5077539;28;20175;-68
2023/01/07 06:53:27;;;;;;;0.60;0.60;;;7.60;99.90;;;;;;5077480;28;20204;-67
2023/01/07 06:55:53;;;;;;;3.93;2.33;;;7.60;99.90;;;;;;5077356;28;20183;-69
2023/01/07 06:58:19;;;;;;;2.77;0.90;;;7.60;99.90;;;;;;5077448;28;20179;-67
2023/01/07 07:00:44;;;;;;;0.80;0.80;;;7.50;99.90;;;;;;5077416;28;20183;-67
2023/01/07 07:03:10;;;;;;;3.20;3.03;;;7.50;99.90;;;;;;5077528;28;20209;-68
2023/01/07 07:05:36;;;;;;;2.50;2.20;;;7.60;99.90;;;;;;5076896;28;20172;-68
2023/01/07 07:08:02;;;;;;;1.87;1.77;;;7.60;99.90;;;;;;5077404;28;20182;-67
2023/01/07 07:10:27;;;;;;;0.83;0.83;;;7.50;99.90;;;;;;5077350;28;20415;-67
2023/01/07 07:12:53;;;;;;;3.97;2.37;;;7.50;99.90;;;;;;5077102;28;20200;-68
2023/01/07 07:15:18;;;;;;;4.47;2.27;;;7.40;99.90;;;;;;5076613;28;20205;-68
2023/01/07 07:17:45;;;;;;;1.77;1.77;;;7.40;99.90;;;;;;5076854;28;20234;-69
2023/01/07 07:20:11;;;;;;;2.20;2.13;;;7.40;99.90;;;;;;5077282;28;20526;-68
2023/01/07 07:22:37;;;;;;;1.25;1.02;;;7.50;99.90;;;;;;5076630;28;20237;-69
2023/01/07 07:25:03;;;;;;;2.73;2.63;;;7.50;99.90;;;;;;5076563;28;20167;-69
2023/01/07 07:27:28;;;;;;;2.25;2.15;;;7.50;99.90;;;;;;5076830;28;20171;-68
2023/01/07 07:29:54;;;;;;;2.80;2.60;;;7.60;99.90;;;;;;5076761;28;20183;-67
2023/01/07 07:32:20;;;;;;;6.20;3.60;;;7.50;99.90;;;;;;5076506;28;20193;-69
2023/01/07 07:34:45;;;;;;;5.50;2.87;;;7.40;99.90;;;;;;5074789;28;20245;-69
2023/01/07 07:37:11;;;;;;;0.43;0.43;;;7.40;99.90;;;;;;5074168;28;20187;-68
2023/01/07 07:39:37;;;;;;;2.77;2.57;;;7.30;99.90;;;;;;5074219;28;20171;-69
2023/01/07 07:42:03;;;;;;;3.87;1.50;;;7.30;99.90;;;;;;5073928;28;20282;-69
2023/01/07 07:44:29;;;;;;;3.95;3.50;;;7.30;99.90;;;;;;5073328;28;20164;-68
2023/01/07 07:46:55;;;;;;;1.93;1.83;;;7.40;99.90;;;;;;5074042;28;20226;-69
2023/01/07 07:49:20;;;;;;;1.10;1.00;;;7.40;99.90;;;;;;5074771;28;20260;-68
2023/01/07 07:51:47;;;;;;;2.53;2.33;;;7.40;99.90;;;;;;5076058;28;20165;-68
2023/01/07 07:54:13;;;;;;;1.52;1.48;;;7.40;99.90;;;;;;5076211;28;20181;-69
2023/01/07 07:56:38;;;;;;;0.90;0.90;;;7.40;99.90;;;;;;5076097;28;20177;-69
2023/01/07 07:59:04;;;;;;;2.70;2.30;;;7.40;99.90;;;;;;5074080;28;20181;-68
2023/01/07 08:01:29;;;;;;;3.60;1.07;;;7.50;99.90;;;;;;5075340;28;20195;-69
2023/01/07 08:03:55;;;;;;;3.07;1.40;;;7.60;99.90;;;;;;5075571;28;20188;-64
2023/01/07 08:06:20;;;;;;;1.47;1.47;;;7.80;99.90;;;;;;5074112;28;20172;-65
2023/01/07 08:08:46;;;;;;;0.83;0.83;;;8.40;99.90;;;;;;5076030;28;20214;-66
2023/01/07 08:11:12;;;;;;;1.27;1.20;;;9.00;99.90;;;;;;5076134;28;20174;-66
2023/01/07 08:13:37;;;;;;;1.37;1.27;;;9.70;99.90;;;;;;5076200;28;20263;-64
2023/01/07 08:16:03;;;;;;;1.43;1.33;;;10.20;99.90;;;;;;5076108;28;20736;-67
2023/01/07 08:18:29;;;;;;;2.80;2.60;;;10.70;99.40;;;;;;5076307;28;20170;-66
2023/01/07 08:20:54;;;;;;;1.43;1.00;;;11.00;98.70;;;;;;5075622;28;20222;-66
2023/01/07 08:23:20;;;;;;;1.80;1.13;;;11.40;98.40;;;;;;5075770;28;20188;-66
2023/01/07 08:25:46;;;;;;;0.83;0.83;;;11.60;97.50;;;;;;5075664;28;20559;-70
2023/01/07 08:28:12;;;;;;;2.70;1.60;;;11.90;96.70;;;;;;5075919;28;20483;-69
2023/01/07 08:30:38;;;;;;;3.90;2.37;;;11.80;94.80;;;;;;5075305;28;20173;-71
2023/01/07 08:33:05;;;;;;;4.37;3.30;;;11.50;93.60;;;;;;5075467;28;20536;-71
2023/01/07 08:35:31;;;;;;;1.30;1.20;;;11.40;93.60;;;;;;5075205;28;20419;-70
2023/01/07 08:38:04;;;;;;;2.30;1.87;;;11.80;94.30;;;;;;5075479;28;20424;-71
2023/01/07 08:40:30;;;;;;;2.13;1.90;;;12.30;93.40;;;;;;5075484;28;20185;-71
2023/01/07 08:42:59;;;;;;;0.83;0.80;;;12.90;92.10;;;;;;5075033;28;20498;-71
2023/01/07 08:45:25;;;;;;;1.43;1.43;;;13.40;91.10;;;;;;5075145;28;20529;-71
2023/01/07 08:47:51;;;;;;;3.20;3.03;;;13.70;90.20;;;;;;5075260;28;20400;-71
2023/01/07 08:50:16;;;;;;;2.53;2.37;;;14.00;89.90;;;;;;5075140;28;20170;-71
2023/01/07 08:52:45;;;;;;;3.80;2.00;;;14.20;87.40;;;;;;5074977;28;20686;-69
2023/01/07 08:55:11;;;;;;;1.60;0.67;;;14.20;85.50;;;;;;5073836;28;20248;-71
2023/01/07 08:57:37;;;;;;;1.20;1.17;;;13.90;84.90;;;;;;5075365;28;20444;-71
2023/01/07 09:00:03;;;;;;;2.47;2.20;;;13.60;85.80;;;;;;5074623;28;20174;-71
2023/01/07 09:02:29;;;;;;;1.10;1.10;;;13.60;86.70;;;;;;5074660;28;20228;-71
2023/01/07 09:04:54;;;;;;;2.00;0.77;;;13.70;85.80;;;;;;5074710;28;20898;-71
2023/01/07 09:07:20;;;;;;;3.50;1.60;;;13.70;83.70;;;;;;5074927;28;20206;-70
2023/01/07 09:09:46;;;;;;;1.50;1.40;;;13.40;84.70;;;;;;5075205;28;20170;-70
2023/01/07 09:12:11;;;;;;;1.30;1.20;;;13.30;85.80;;;;;;5074199;28;20189;-71
2023/01/07 09:14:37;;;;;;;1.27;1.07;;;13.20;85.60;;;;;;5074758;28;20466;-69
2023/01/07 09:17:03;;;;;;;1.13;0.87;;;13.00;86.10;;;;;;5073202;28;20188;-71
2023/01/07 09:19:28;;;;;;;2.40;2.20;;;12.90;88.30;;;;;;5074870;28;20166;-71
2023/01/07 09:21:56;;;;;;;1.13;1.03;;;12.90;87.20;;;;;;5074373;28;20283;-70
2023/01/07 09:24:21;;;;;;;1.47;1.00;;;12.80;88.40;;;;;;5074286;28;20189;-71
2023/01/07 09:26:47;;;;;;;0.90;0.90;;;12.90;88.90;;;;;;5074485;28;20905;-69
2023/01/07 09:29:12;;;;;;;1.50;1.20;;;13.10;87.70;;;;;;5074827;28;20212;-70
2023/01/07 09:31:39;;;;;;;0.63;0.60;;;12.90;87.60;;;;;;5074096;28;20172;-70
2023/01/07 09:34:04;;;;;;;0.83;0.80;;;12.80;88.30;;;;;;5074185;28;20219;-70
2023/01/07 09:36:30;;;;;;;2.50;2.20;;;12.60;87.40;;;;;;5073957;28;20432;-70
2023/01/07 09:38:56;;;;;;;0.73;0.73;;;12.50;88.40;;;;;;5074434;28;20170;-70
2023/01/07 09:41:33;;;;;;;2.10;1.40;;;12.20;88.30;;;;;;5074452;28;20283;-70
2023/01/07 09:44:23;;;;;;;1.57;1.47;;;11.60;90.00;;;;;;5074631;28;20165;-70
2023/01/07 09:46:52;;;;;;;0.77;0.77;;;11.00;90.70;;;;;;5074042;28;20418;-71
2023/01/07 09:49:18;;;;;;;1.57;1.50;;;10.60;91.50;;;;;;5074286;28;20437;-70
2023/01/07 09:51:51;;;;;;;2.17;2.07;;;10.40;92.00;;;;;;5074347;28;20408;-70
2023/01/07 09:54:31;;;;;;;2.77;2.07;;;10.40;92.40;;;;;;5073656;28;20936;-71
2023/01/07 09:56:57;;;;;;;1.13;1.03;;;10.40;92.40;;;;;;5073968;28;20408;-71
2023/01/07 09:59:23;;;;;;;1.57;1.47;;;10.40;92.40;;;;;;5073671;28;20896;-70
2023/01/07 10:02:20;;;;;;;1.17;0.70;;;10.70;92.30;;;;;;5073958;28;20200;-71
2023/01/07 10:05:22;;;;;;;3.13;2.93;;;10.70;91.80;;;;;;5073495;28;20264;-70
2023/01/07 10:07:56;;;;;;;1.27;0.97;;;10.30;92.10;;;;;;5073719;28;20826;-69
2023/01/07 10:10:54;;;;;;;3.60;1.13;;;10.00;93.00;;;;;;5073737;28;20826;-70
2023/01/07 10:13:38;;;;;;;1.13;1.13;;;9.80;93.70;;;;;;5072787;28;20205;-70
2023/01/07 10:16:18;;;;;;;5.47;1.70;;;9.70;94.00;;;;;;5073730;28;20794;-69
2023/01/07 10:19:01;;;;;;;0.60;0.60;;;10.00;93.40;;;;;;5073840;28;20165;-70
2023/01/07 10:21:36;;;;;;;0.97;0.97;;;10.30;93.40;;;;;;5073686;28;20268;-70
2023/01/07 10:24:08;;;;;;;1.65;1.55;;;10.80;92.40;;;;;;5073586;28;20380;-71
2023/01/07 10:26:43;;;;;;;0.60;0.60;;;10.80;92.30;;;;;;5073780;28;20176;-69
2023/01/07 10:29:27;;;;;;;2.20;2.03;;;11.30;92.90;;;;;;5073916;28;20179;-72
2023/01/07 10:31:56;;;;;;;1.17;1.07;;;12.60;91.40;;;;;;5073626;28;20869;-71
2023/01/07 10:34:28;;;;;;;1.33;0.97;;;14.30;88.00;;;;;;5073601;28;20406;-71
2023/01/07 10:37:01;;;;;;;0.90;0.90;;;15.70;83.70;;;;;;5073273;28;20518;-71
2023/01/07 10:39:48;;;;;;;0.97;0.80;;;16.40;79.90;;;;;;5073462;28;20395;-71
2023/01/07 10:42:30;;;;;;;0.50;0.50;;;17.00;76.60;;;;;;5072282;28;20553;-69
2023/01/07 10:45:04;;;;;;;1.00;0.80;;;17.10;73.10;;;;;;5072413;28;20435;-70
2023/01/07 10:48:03;;;;;;;1.37;1.33;;;17.10;74.10;;;;;;5073291;28;20406;-71
2023/01/07 10:50:39;;;;;;;2.23;0.93;;;17.30;72.60;;;;;;5073051;28;20493;-69
2023/01/07 10:53:16;;;;;;;1.10;1.00;;;17.30;70.80;;;;;;5073309;28;20491;-70
2023/01/07 10:56:02;;;;;;;1.40;1.30;;;17.00;70.30;;;;;;5073009;28;20399;-70
2023/01/07 10:58:38;;;;;;;1.10;1.10;;;16.30;73.10;;;;;;5073111;28;20479;-71
2023/01/07 11:01:04;;;;;;;0.60;0.60;;;15.80;73.10;;;;;;5072454;28;20460;-71
2023/01/07 11:03:32;;;;;;;1.03;0.53;;;15.50;75.20;;;;;;5071931;28;20422;-70
2023/01/07 11:06:04;;;;;;;1.30;1.20;;;15.50;76.50;;;;;;5072866;28;20773;-72
2023/01/07 11:08:41;;;;;;;1.90;1.67;;;15.00;76.10;;;;;;5072904;28;20738;-70
2023/01/07 11:11:15;;;;;;;1.50;1.17;;;14.60;77.70;;;;;;5073432;28;20404;-70
2023/01/07 11:13:45;;;;;;;1.03;1.03;;;14.10;77.70;;;;;;5072789;28;20423;-71
2023/01/07 11:16:16;;;;;;;0.73;0.73;;;13.30;80.10;;;;;;5072990;28;20453;-71
2023/01/07 11:19:05;;;;;;;1.37;1.27;;;12.80;82.70;;;;;;5074650;28;20723;-70
2023/01/07 11:21:36;;;;;;;1.77;1.67;;;12.30;84.20;;;;;;5077012;28;20459;-70
2023/01/07 11:24:31;;;;;;;0.82;0.82;;;11.80;85.90;;;;;;5076413;28;20443;-70
2023/01/07 11:27:09;;;;;;;1.40;1.30;;;11.50;88.80;;;;;;5077069;28;20154;-70
2023/01/07 11:29:41;;;;;;;0.90;0.90;;;11.00;92.90;;;;;;5076689;28;20215;-70
2023/01/07 11:32:37;;;;;;;2.35;2.15;;;10.60;94.10;;;;;;5076815;28;20686;-71
2023/01/07 11:35:04;;;;;;;0.60;0.60;;;10.20;95.70;;;;;;5076705;28;20551;-71
2023/01/07 11:37:39;;;;;;;1.45;1.35;;;10.20;96.90;;;;;;5076457;28;20196;-69
2023/01/07 11:40:11;;;;;;;3.63;1.45;;;10.10;97.40;;;;;;5076802;28;20165;-70
2023/01/07 11:42:52;;;;;;;1.10;1.08;;;10.20;97.30;;;;;;5076321;28;20564;-71
2023/01/07 11:45:21;;;;;;;0.70;0.70;;;10.20;96.70;;;;;;5076105;28;20162;-67
2023/01/07 11:47:49;;;;;;;0.52;0.52;;;10.30;95.30;;;;;;5076538;28;20177;-71
2023/01/07 11:50:35;;;;;;;5.72;1.98;;;10.30;95.60;;;;;;5076607;28;20527;-70
2023/01/07 11:53:12;;;;;;;1.58;1.48;;;10.20;96.10;;;;;;5074368;28;20247;-69
2023/01/07 11:55:39;;;;;;;0.40;0.40;;;10.10;96.60;;;;;;5076076;28;20528;-70
2023/01/07 11:58:05;;;;;;;1.42;1.15;;;9.90;97.60;;;;;;5076164;28;20185;-70
2023/01/07 12:00:32;;;;;;;1.35;1.25;;;9.70;97.60;;;;;;5074120;28;20170;-71
2023/01/07 12:03:12;;;;;;;1.63;1.52;;;9.60;97.90;;;;;;5075867;28;20201;-70
2023/01/07 12:05:40;;;;;;;0.77;0.77;;;9.50;98.10;;;;;;5075816;28;20149;-68
2023/01/07 12:08:06;;;;;;;0.77;0.77;;;9.40;98.20;;;;;;5076371;28;20181;-70
2023/01/07 12:10:38;;;;;;;0.45;0.45;;;9.30;98.40;;;;;;5075792;28;20194;-68
2023/01/07 12:13:16;;;;;;;2.10;2.00;;;9.00;98.30;;;;;;5075730;28;20197;-68
2023/01/07 12:15:54;;;;;;;1.88;1.55;;;9.10;98.60;;;;;;5075688;28;20280;-69
2023/01/07 12:18:34;;;;;;;2.13;2.03;;;8.90;98.60;;;;;;5075706;28;20174;-71
2023/01/07 12:21:31;;;;;;;2.13;2.03;;;8.80;99.10;;;;;;5075611;28;20638;-70
2023/01/07 12:24:20;;;;;;;3.40;1.85;;;8.70;99.70;;;;;;5076087;28;20224;-70
2023/01/07 12:26:53;;;;;;;0.80;0.77;;;8.80;99.70;;;;;;5075848;28;20161;-69
2023/01/07 12:30:04;;;;;;;1.65;1.15;;;8.80;99.50;;;;;;5075398;28;20667;-70
2023/01/07 12:32:39;;;;;;;2.53;1.52;;;8.90;99.50;;;;;;5074596;28;20205;-68
2023/01/07 12:35:20;;;;;;;1.40;1.40;;;8.80;99.90;;;;;;5075287;28;20225;-69
2023/01/07 12:38:07;;;;;;;1.88;0.80;;;8.80;99.90;;;;;;5075239;28;20212;-71
2023/01/07 12:40:33;;;;;;;2.08;1.98;;;8.60;99.90;;;;;;5075836;28;20201;-69
2023/01/07 12:43:07;;;;;;;1.37;1.20;;;8.50;99.90;;;;;;5075250;28;20748;-70
2023/01/07 12:45:43;;;;;;;0.68;0.68;;;8.50;99.90;;;;;;5075004;28;20518;-70
2023/01/07 12:48:27;;;;;;;2.88;2.25;;;8.50;99.90;;;;;;5075477;28;20176;-71
2023/01/07 12:50:58;;;;;;;2.35;1.02;;;8.40;99.90;;;;;;5075429;28;20173;-69
2023/01/07 12:53:43;;;;;;;0.90;0.90;;;8.40;99.90;;;;;;5074565;28;20185;-69
2023/01/07 12:56:31;;;;;;;7.43;2.85;;;8.30;99.90;;;;;;5073834;28;20166;-67
2023/01/07 12:59:16;;;;;;;3.58;1.92;;;8.30;99.90;;;;;;5075251;28;20175;-70
2023/01/07 13:01:44;;;;;;;2.60;0.70;;;8.30;99.90;;;;;;5072886;28;20196;-70
2023/01/07 13:04:27;;;;;;;1.85;1.77;;;8.30;99.90;;;;;;5074195;28;20168;-70
2023/01/07 13:07:04;;;;;;;1.05;0.95;;;8.30;99.90;;;;;;5074289;28;20223;-71
2023/01/07 13:09:36;;;;;;;3.78;3.47;;;8.30;99.90;;;;;;5073798;28;20529;-70
2023/01/07 13:15:08;;;;;;;0.88;0.88;;;8.30;99.90;;;;;;5074621;28;20175;-69
2023/01/07 13:17:34;;;;;;;0.60;0.60;;;8.30;99.90;;;;;;5074856;28;20176;-68